Time;durP1;ratioP1;P1;durP2;ratioP2;P2;SDS_P1;SDS_P2;PMS_P1;PMS_P2;Temp;Humidity;BMP_temperature;BMP_pressure;BME280_temperature;BME280_humidity;BME280_pressure;Samples;Min_cycle;Max_cycle;Signal;HPM_P1;HPM_P2
2023/09/10 00:00:41;;;;;;;7.70;7.00;;;27.40;90.50;;;;;;5011120;28;20528;-88
2023/09/10 00:03:10;;;;;;;8.00;6.55;;;27.40;90.50;;;;;;5011356;28;20560;-88
2023/09/10 00:05:38;;;;;;;7.10;6.50;;;27.40;90.50;;;;;;5010665;28;20180;-88
2023/09/10 00:08:07;;;;;;;7.37;6.67;;;27.40;90.50;;;;;;5011606;28;20166;-88
2023/09/10 00:10:32;;;;;;;7.00;6.40;;;27.40;90.60;;;;;;5011379;28;20193;-88
2023/09/10 00:12:58;;;;;;;9.80;6.20;;;27.40;90.70;;;;;;5010855;28;20275;-88
2023/09/10 00:15:27;;;;;;;8.82;6.60;;;27.40;90.70;;;;;;5010540;28;20729;-88
2023/09/10 00:17:55;;;;;;;7.70;6.53;;;27.30;90.70;;;;;;5011325;28;20185;-88
2023/09/10 00:20:21;;;;;;;7.67;6.47;;;27.30;90.80;;;;;;5010929;28;20174;-88
2023/09/10 00:22:52;;;;;;;7.20;6.50;;;27.30;90.80;;;;;;5010013;28;20300;-88
2023/09/10 00:25:21;;;;;;;7.17;6.57;;;27.30;90.80;;;;;;5009760;28;20221;-88
2023/09/10 00:27:50;;;;;;;7.23;6.53;;;27.30;90.80;;;;;;5010174;28;20289;-88
2023/09/10 00:30:19;;;;;;;7.27;6.67;;;27.30;90.80;;;;;;5009919;28;20285;-88
2023/09/10 00:32:45;;;;;;;7.13;6.43;;;27.30;90.80;;;;;;4987894;28;20180;-88
2023/09/10 00:35:10;;;;;;;7.30;6.60;;;27.30;90.90;;;;;;5007924;28;20173;-88
2023/09/10 00:37:36;;;;;;;7.37;6.67;;;27.20;90.80;;;;;;5008774;28;20182;-88
2023/09/10 00:40:03;;;;;;;7.97;6.73;;;27.20;90.80;;;;;;5009158;28;20574;-88
2023/09/10 00:42:28;;;;;;;7.10;6.40;;;27.20;90.90;;;;;;5009832;28;20213;-88
2023/09/10 00:44:54;;;;;;;7.30;6.60;;;27.20;90.90;;;;;;5007738;28;20173;-88
2023/09/10 00:47:21;;;;;;;7.03;6.13;;;27.20;90.90;;;;;;5008078;28;20208;-88
2023/09/10 00:49:48;;;;;;;7.70;6.33;;;27.20;90.80;;;;;;5008887;28;20178;-88
2023/09/10 00:52:16;;;;;;;6.90;6.30;;;27.20;90.80;;;;;;5008516;28;20189;-89
2023/09/10 00:54:42;;;;;;;7.23;6.57;;;27.20;90.80;;;;;;5010234;28;20607;-89
2023/09/10 00:57:09;;;;;;;7.00;6.30;;;27.20;90.80;;;;;;5010011;28;20268;-89
2023/09/10 00:59:38;;;;;;;8.83;6.53;;;27.20;90.80;;;;;;5010442;28;20384;-88
2023/09/10 01:02:25;;;;;;;7.20;6.50;;;27.20;90.80;;;;;;5010899;28;20213;-89
2023/09/10 01:04:56;;;;;;;7.00;6.30;;;27.20;90.70;;;;;;4987750;28;20276;-89
2023/09/10 01:07:25;;;;;;;6.60;6.10;;;27.20;90.70;;;;;;5011158;28;20209;-88
2023/09/10 01:09:59;;;;;;;6.53;5.93;;;27.20;90.70;;;;;;5012716;28;20181;-88
2023/09/10 01:12:40;;;;;;;7.13;6.43;;;27.20;90.70;;;;;;5014514;28;20239;-89
2023/09/10 01:15:31;;;;;;;6.83;6.00;;;27.10;90.80;;;;;;5013627;28;20177;-88
2023/09/10 01:18:22;;;;;;;6.77;6.17;;;27.10;90.90;;;;;;5011596;28;20181;-88
2023/09/10 01:21:19;;;;;;;6.20;5.70;;;27.10;90.90;;;;;;5012536;28;20170;-89
2023/09/10 01:24:03;;;;;;;6.87;6.23;;;27.10;90.90;;;;;;5012665;28;20177;-88
2023/09/10 01:26:29;;;;;;;7.30;6.10;;;27.10;91.00;;;;;;5013257;28;20579;-88
2023/09/10 01:28:55;;;;;;;7.60;6.80;;;27.10;91.00;;;;;;5014106;28;20182;-88
2023/09/10 01:31:23;;;;;;;6.77;6.10;;;27.10;91.40;;;;;;5015620;28;20173;-88
2023/09/10 01:33:56;;;;;;;6.90;6.30;;;27.00;91.20;;;;;;5014413;28;20303;-88
2023/09/10 01:36:48;;;;;;;6.63;5.97;;;27.00;91.20;;;;;;5014342;28;20185;-88
2023/09/10 01:39:30;;;;;;;6.33;5.83;;;27.00;91.20;;;;;;5015193;28;20571;-88
2023/09/10 01:42:02;;;;;;;6.83;6.13;;;27.00;91.30;;;;;;5013996;28;20193;-88
2023/09/10 01:44:41;;;;;;;6.87;6.17;;;27.00;91.20;;;;;;5013538;28;20208;-88
2023/09/10 01:47:10;;;;;;;7.27;6.57;;;27.00;91.30;;;;;;5013351;28;20220;-89
2023/09/10 01:49:36;;;;;;;6.77;6.17;;;27.00;91.30;;;;;;5014041;28;20216;-89
2023/09/10 01:52:12;;;;;;;7.03;6.43;;;27.00;91.40;;;;;;5014916;28;20268;-89
2023/09/10 01:54:41;;;;;;;6.40;5.80;;;27.00;91.40;;;;;;5015369;28;20215;-89
2023/09/10 01:57:10;;;;;;;6.60;6.00;;;26.90;91.40;;;;;;5014054;28;20586;-89
2023/09/10 01:59:36;;;;;;;6.67;6.07;;;26.90;91.50;;;;;;5013548;28;20261;-89
2023/09/10 02:02:04;;;;;;;6.73;5.93;;;27.00;91.50;;;;;;5014501;28;20182;-89
2023/09/10 02:04:39;;;;;;;6.17;5.63;;;26.90;91.50;;;;;;5012840;28;20192;-88
2023/09/10 02:07:07;;;;;;;6.80;6.20;;;26.80;91.60;;;;;;5012709;28;20205;-88
2023/09/10 02:09:34;;;;;;;6.17;5.67;;;26.90;91.60;;;;;;5010781;28;20459;-88
2023/09/10 02:12:06;;;;;;;6.97;6.27;;;26.90;91.50;;;;;;5011115;28;20228;-88
2023/09/10 02:14:37;;;;;;;6.47;5.87;;;26.90;91.50;;;;;;5011053;28;20178;-89
2023/09/10 02:17:04;;;;;;;6.40;5.80;;;26.80;91.50;;;;;;5012421;28;20330;-88
2023/09/10 02:19:56;;;;;;;6.47;5.80;;;26.80;91.60;;;;;;5011550;28;20216;-89
2023/09/10 02:22:25;;;;;;;6.13;5.63;;;26.80;91.60;;;;;;5011449;28;20186;-89
2023/09/10 02:24:52;;;;;;;6.53;5.93;;;26.80;91.60;;;;;;5011803;28;20178;-89
2023/09/10 02:27:22;;;;;;;8.03;5.70;;;26.90;91.70;;;;;;5013093;28;20279;-88
2023/09/10 02:29:50;;;;;;;6.40;5.90;;;26.90;91.60;;;;;;5012091;28;20248;-89
2023/09/10 02:32:19;;;;;;;6.60;5.90;;;26.80;91.60;;;;;;5015427;28;20563;-88
2023/09/10 02:34:48;;;;;;;6.67;6.07;;;26.90;91.60;;;;;;5013868;28;20170;-88
2023/09/10 02:37:20;;;;;;;6.57;5.80;;;26.90;91.60;;;;;;5013107;28;20296;-89
2023/09/10 02:39:49;;;;;;;6.80;5.93;;;26.90;91.60;;;;;;5013906;28;20606;-89
2023/09/10 02:42:39;;;;;;;6.37;5.77;;;26.90;91.60;;;;;;5013960;28;20197;-88
2023/09/10 02:45:07;;;;;;;6.10;5.50;;;26.90;91.60;;;;;;5020801;28;20186;-88
2023/09/10 02:47:33;;;;;;;6.63;6.03;;;26.80;91.70;;;;;;5011890;28;20220;-88
2023/09/10 02:50:01;;;;;;;6.73;6.10;;;26.80;91.70;;;;;;5011724;28;20169;-88
2023/09/10 02:52:30;;;;;;;6.80;5.70;;;26.80;91.70;;;;;;5012400;28;20532;-89
2023/09/10 02:55:02;;;;;;;6.10;5.43;;;26.80;91.80;;;;;;5011674;28;20180;-89
2023/09/10 02:57:29;;;;;;;6.83;5.60;;;26.80;91.80;;;;;;5011933;28;20177;-88
2023/09/10 02:59:58;;;;;;;6.60;6.00;;;26.80;91.80;;;;;;5011512;28;20177;-89
2023/09/10 03:02:23;;;;;;;6.20;5.70;;;26.80;91.80;;;;;;5012153;28;20276;-88
2023/09/10 03:04:53;;;;;;;5.93;5.43;;;26.80;91.80;;;;;;5013025;28;20276;-89
2023/09/10 03:07:22;;;;;;;6.47;5.87;;;26.80;91.80;;;;;;5012820;28;20256;-89
2023/09/10 03:10:30;;;;;;;6.67;5.97;;;26.80;91.80;;;;;;5013325;28;20291;-89
2023/09/10 03:12:58;;;;;;;6.40;5.80;;;26.70;91.80;;;;;;5005113;28;20204;-89
2023/09/10 03:15:23;;;;;;;6.73;6.07;;;26.80;91.90;;;;;;5014358;28;20182;-89
2023/09/10 03:17:49;;;;;;;6.60;5.90;;;26.80;91.90;;;;;;5013433;28;20170;-89
2023/09/10 03:20:14;;;;;;;6.30;5.80;;;26.80;91.90;;;;;;5013471;28;20173;-89
2023/09/10 03:22:41;;;;;;;6.30;5.70;;;26.70;91.80;;;;;;5014789;28;20192;-88
2023/09/10 03:25:10;;;;;;;6.57;5.90;;;26.70;91.90;;;;;;5014606;28;20469;-89
2023/09/10 03:27:36;;;;;;;6.30;5.80;;;26.70;91.90;;;;;;5012512;28;20578;-89
2023/09/10 03:30:05;;;;;;;6.30;5.80;;;26.70;91.90;;;;;;5013469;28;20205;-89
2023/09/10 03:32:32;;;;;;;6.43;5.83;;;26.70;91.90;;;;;;5010983;28;20173;-88
2023/09/10 03:34:57;;;;;;;6.97;6.27;;;26.70;92.00;;;;;;5013616;28;20174;-89
2023/09/10 03:37:44;;;;;;;6.10;5.60;;;26.70;91.90;;;;;;5013018;28;20255;-89
2023/09/10 03:40:14;;;;;;;6.40;5.90;;;26.70;91.90;;;;;;5013475;28;20255;-89
2023/09/10 03:42:39;;;;;;;6.60;6.07;;;26.60;92.00;;;;;;5013275;28;20565;-88
2023/09/10 03:45:11;;;;;;;6.57;6.00;;;26.70;92.10;;;;;;5011794;28;20181;-89
2023/09/10 03:47:40;;;;;;;6.53;5.60;;;26.60;92.30;;;;;;5012049;28;20205;-88
2023/09/10 03:50:11;;;;;;;6.43;5.83;;;26.60;92.10;;;;;;5012513;28;20194;-88
2023/09/10 03:52:39;;;;;;;6.63;6.03;;;26.60;92.10;;;;;;5011372;28;20342;-88
2023/09/10 03:55:06;;;;;;;6.03;5.50;;;26.60;92.20;;;;;;5011560;28;20350;-88
2023/09/10 03:57:31;;;;;;;6.50;5.97;;;26.60;92.10;;;;;;5011960;28;20174;-88
2023/09/10 03:59:58;;;;;;;5.80;5.30;;;26.60;92.10;;;;;;5011539;28;20192;-88
2023/09/10 04:02:24;;;;;;;6.33;5.83;;;26.60;92.20;;;;;;5012010;28;20228;-88
2023/09/10 04:04:52;;;;;;;6.10;5.60;;;26.50;92.20;;;;;;5011992;28;20516;-88
2023/09/10 04:07:18;;;;;;;6.13;5.47;;;26.60;92.20;;;;;;5012307;28;20209;-88
2023/09/10 04:09:45;;;;;;;6.43;5.83;;;26.60;92.20;;;;;;5013184;28;20203;-88
2023/09/10 04:12:16;;;;;;;6.50;6.00;;;26.60;92.30;;;;;;5013931;28;20177;-88
2023/09/10 04:14:44;;;;;;;6.13;5.63;;;26.50;92.20;;;;;;5013108;28;20205;-89
2023/09/10 04:17:18;;;;;;;6.77;6.10;;;26.60;92.20;;;;;;5011703;28;20184;-89
2023/09/10 04:19:46;;;;;;;6.37;5.77;;;26.50;92.20;;;;;;5012374;28;20184;-90
2023/09/10 04:22:15;;;;;;;6.23;5.70;;;26.50;92.30;;;;;;5011909;28;20426;-90
2023/09/10 04:24:42;;;;;;;6.87;6.07;;;26.50;92.40;;;;;;5011383;28;20288;-89
2023/09/10 04:27:10;;;;;;;6.07;5.57;;;26.50;92.30;;;;;;5011087;28;20216;-90
2023/09/10 04:29:36;;;;;;;6.40;5.80;;;26.50;92.30;;;;;;5010969;28;20181;-90
2023/09/10 04:32:02;;;;;;;6.40;5.80;;;26.50;92.40;;;;;;5011396;28;20482;-89
2023/09/10 04:34:30;;;;;;;5.80;5.30;;;26.50;92.30;;;;;;5011107;28;20180;-89
2023/09/10 04:36:56;;;;;;;6.33;5.83;;;26.40;92.30;;;;;;5011363;28;20181;-89
2023/09/10 04:39:22;;;;;;;6.17;5.57;;;26.40;92.40;;;;;;5010525;28;20527;-89
2023/09/10 04:41:53;;;;;;;6.47;5.63;;;26.40;92.40;;;;;;5010260;28;20225;-89
2023/09/10 04:44:23;;;;;;;6.50;5.83;;;26.40;92.50;;;;;;5011845;28;20178;-89
2023/09/10 04:46:54;;;;;;;6.13;5.60;;;26.40;92.80;;;;;;5014858;28;20208;-89
2023/09/10 04:49:20;;;;;;;5.90;5.40;;;26.40;92.50;;;;;;5015669;28;20285;-89
2023/09/10 04:51:49;;;;;;;6.23;5.63;;;26.40;92.50;;;;;;5017457;28;20467;-89
2023/09/10 04:54:25;;;;;;;6.53;5.93;;;26.40;92.50;;;;;;5014776;28;20216;-89
2023/09/10 04:56:53;;;;;;;6.80;6.20;;;26.40;92.60;;;;;;5015765;28;20176;-89
2023/09/10 04:59:19;;;;;;;6.00;5.50;;;26.30;92.50;;;;;;5013653;28;20170;-89
2023/09/10 05:01:54;;;;;;;6.50;5.90;;;26.30;92.50;;;;;;5016447;28;20201;-90
2023/09/10 05:04:20;;;;;;;6.30;5.50;;;26.30;92.50;;;;;;5014104;28;20209;-89
2023/09/10 05:06:45;;;;;;;6.40;5.80;;;26.40;92.50;;;;;;5014789;28;20275;-89
2023/09/10 05:09:14;;;;;;;6.13;5.63;;;26.30;92.50;;;;;;5015472;28;20201;-89
2023/09/10 05:11:41;;;;;;;6.20;5.70;;;26.30;92.50;;;;;;5013975;28;20228;-89
2023/09/10 05:14:06;;;;;;;6.67;6.00;;;26.30;92.60;;;;;;5014801;28;20442;-89
2023/09/10 05:16:35;;;;;;;6.03;5.43;;;26.30;92.60;;;;;;5013844;28;20543;-89
2023/09/10 05:19:04;;;;;;;6.00;5.50;;;26.30;92.60;;;;;;5014134;28;20206;-89
2023/09/10 05:21:30;;;;;;;6.63;5.87;;;26.30;92.40;;;;;;5014651;28;20177;-89
2023/09/10 05:24:02;;;;;;;6.40;5.80;;;26.30;92.60;;;;;;5014016;28;20181;-89
2023/09/10 05:26:30;;;;;;;6.23;5.63;;;26.30;92.60;;;;;;5014310;28;20248;-90
2023/09/10 05:29:00;;;;;;;5.73;5.23;;;26.30;92.50;;;;;;5015766;28;20337;-89
2023/09/10 05:31:25;;;;;;;5.73;5.13;;;26.30;92.50;;;;;;5016955;28;20185;-89
2023/09/10 05:33:54;;;;;;;5.97;5.47;;;26.30;92.50;;;;;;5014805;28;20170;-90
2023/09/10 05:36:23;;;;;;;5.97;5.47;;;26.30;92.50;;;;;;5014443;28;20178;-90
2023/09/10 05:38:52;;;;;;;6.27;5.67;;;26.30;92.60;;;;;;5014750;28;20178;-90
2023/09/10 05:41:21;;;;;;;6.03;5.47;;;26.30;92.50;;;;;;5013678;28;20193;-90
2023/09/10 05:43:49;;;;;;;5.83;5.33;;;26.30;92.40;;;;;;5014026;28;20173;-90
2023/09/10 05:46:18;;;;;;;6.97;5.50;;;26.30;92.50;;;;;;5013160;28;20240;-89
2023/09/10 05:48:50;;;;;;;5.93;5.50;;;26.20;92.40;;;;;;5012443;28;20732;-89
2023/09/10 05:51:19;;;;;;;6.37;5.77;;;26.20;92.40;;;;;;5013185;28;20279;-90
2023/09/10 05:53:47;;;;;;;6.33;5.77;;;26.30;92.50;;;;;;5015770;28;20265;-90
2023/09/10 05:56:16;;;;;;;6.20;5.67;;;26.30;92.40;;;;;;5016939;28;20228;-89
2023/09/10 05:58:42;;;;;;;6.07;5.43;;;26.20;92.50;;;;;;5011266;28;20759;-89
2023/09/10 06:01:11;;;;;;;5.63;5.17;;;26.10;92.60;;;;;;5012720;28;20240;-89
2023/09/10 06:03:39;;;;;;;5.80;5.30;;;26.10;92.60;;;;;;5012454;28;20173;-89
2023/09/10 06:06:05;;;;;;;6.40;5.80;;;26.10;92.70;;;;;;5010362;28;20312;-89
2023/09/10 06:08:31;;;;;;;6.27;5.40;;;26.10;92.70;;;;;;5013120;28;20253;-89
2023/09/10 06:10:59;;;;;;;6.00;5.50;;;26.10;92.60;;;;;;5012091;28;20228;-89
2023/09/10 06:13:26;;;;;;;6.10;5.50;;;26.20;92.60;;;;;;5012080;28;20176;-89
2023/09/10 06:15:52;;;;;;;6.17;5.67;;;26.10;92.80;;;;;;5012322;28;20222;-89
2023/09/10 06:18:21;;;;;;;5.90;5.30;;;26.20;92.50;;;;;;5012209;28;20169;-89
2023/09/10 06:20:47;;;;;;;6.60;6.00;;;26.20;92.50;;;;;;5010851;28;20284;-89
2023/09/10 06:23:25;;;;;;;6.20;5.60;;;26.20;92.50;;;;;;5012463;28;20237;-89
2023/09/10 06:25:53;;;;;;;5.43;4.93;;;26.20;92.50;;;;;;5010758;28;20173;-89
2023/09/10 06:28:24;;;;;;;6.37;5.70;;;26.20;92.40;;;;;;5012743;28;20176;-89
2023/09/10 06:30:50;;;;;;;5.97;5.47;;;26.30;92.50;;;;;;5013248;28;20170;-89
2023/09/10 06:33:21;;;;;;;5.67;5.20;;;26.30;92.40;;;;;;5012394;28;20166;-89
2023/09/10 06:35:50;;;;;;;6.07;5.57;;;26.30;92.40;;;;;;5012912;28;20170;-89
2023/09/10 06:38:18;;;;;;;7.10;5.73;;;26.30;92.60;;;;;;5014167;28;20563;-89
2023/09/10 06:40:48;;;;;;;6.20;5.50;;;26.30;92.30;;;;;;5013160;28;20193;-89
2023/09/10 06:43:14;;;;;;;5.43;5.03;;;26.40;92.40;;;;;;5010482;28;20209;-89
2023/09/10 06:45:43;;;;;;;6.20;5.70;;;26.40;92.40;;;;;;5010351;28;20212;-88
2023/09/10 06:48:09;;;;;;;5.82;5.32;;;26.40;92.40;;;;;;5010400;28;20185;-89
2023/09/10 06:50:38;;;;;;;6.37;5.77;;;26.40;92.30;;;;;;5011406;28;20181;-89
2023/09/10 06:53:09;;;;;;;6.43;5.93;;;26.50;92.30;;;;;;5010522;28;20177;-88
2023/09/10 06:55:44;;;;;;;5.87;5.37;;;26.50;92.20;;;;;;5010412;28;20236;-88
2023/09/10 06:58:31;;;;;;;5.80;5.30;;;26.60;92.20;;;;;;5009523;28;20184;-88
2023/09/10 07:01:02;;;;;;;6.10;5.60;;;26.60;92.00;;;;;;5012651;28;20180;-88
2023/09/10 07:03:28;;;;;;;5.83;5.33;;;26.70;92.00;;;;;;5011344;28;20259;-88
2023/09/10 07:05:58;;;;;;;6.15;5.55;;;26.70;91.90;;;;;;5010208;28;20191;-88
2023/09/10 07:08:27;;;;;;;6.07;5.57;;;26.80;91.70;;;;;;5010637;28;20162;-88
2023/09/10 07:10:52;;;;;;;6.30;5.70;;;26.80;91.60;;;;;;5012403;28;20174;-88
2023/09/10 07:13:18;;;;;;;5.93;5.43;;;26.90;91.60;;;;;;5011278;28;20251;-88
2023/09/10 07:15:56;;;;;;;5.93;5.32;;;27.00;91.40;;;;;;5012154;28;20575;-88
2023/09/10 07:18:21;;;;;;;6.07;5.57;;;27.10;91.30;;;;;;5010613;28;20166;-88
2023/09/10 07:20:53;;;;;;;6.15;5.55;;;27.10;91.10;;;;;;5010284;28;20176;-88
2023/09/10 07:23:24;;;;;;;5.90;5.40;;;27.20;90.90;;;;;;5009741;28;20320;-88
2023/09/10 07:25:54;;;;;;;6.10;5.60;;;27.30;90.60;;;;;;5008714;28;20326;-88
2023/09/10 07:28:22;;;;;;;6.40;5.75;;;27.50;90.30;;;;;;5009291;28;20173;-88
2023/09/10 07:30:49;;;;;;;6.05;5.45;;;27.70;89.70;;;;;;5008066;28;20555;-88
2023/09/10 07:33:18;;;;;;;6.53;5.93;;;27.80;88.50;;;;;;5007700;28;20170;-88
2023/09/10 07:35:46;;;;;;;6.32;5.80;;;28.00;87.40;;;;;;5008323;28;20271;-89
2023/09/10 07:38:15;;;;;;;6.28;5.68;;;28.10;86.70;;;;;;5007321;28;20182;-88
2023/09/10 07:40:42;;;;;;;6.30;5.80;;;28.30;85.50;;;;;;5008683;28;20474;-88
2023/09/10 07:43:08;;;;;;;5.85;5.35;;;28.40;84.60;;;;;;5010266;28;20211;-88
2023/09/10 07:45:36;;;;;;;6.28;5.68;;;28.60;83.60;;;;;;5008006;28;20173;-88
2023/09/10 07:48:04;;;;;;;6.20;5.70;;;28.60;83.10;;;;;;5009003;28;20205;-88
2023/09/10 07:50:31;;;;;;;5.75;5.25;;;28.70;82.50;;;;;;5008043;28;20173;-89
2023/09/10 07:53:00;;;;;;;5.88;5.38;;;28.80;81.70;;;;;;5008029;28;20227;-88
2023/09/10 07:55:28;;;;;;;6.50;5.32;;;28.80;80.80;;;;;;5007271;28;20353;-88
2023/09/10 07:57:54;;;;;;;6.30;5.18;;;29.00;80.20;;;;;;5009032;28;20392;-88
2023/09/10 08:00:23;;;;;;;7.20;5.60;;;29.10;79.30;;;;;;5007136;28;20182;-88
2023/09/10 08:02:49;;;;;;;6.40;5.63;;;29.20;78.90;;;;;;5005633;28;20188;-88
2023/09/10 08:05:18;;;;;;;7.68;6.15;;;29.20;78.20;;;;;;5004920;28;20280;-88
2023/09/10 08:07:47;;;;;;;8.63;7.50;;;29.30;77.90;;;;;;5003666;28;20209;-88
2023/09/10 08:10:13;;;;;;;11.45;8.20;;;29.50;77.10;;;;;;5005528;28;20176;-88
2023/09/10 08:12:42;;;;;;;10.70;8.30;;;29.50;76.80;;;;;;5005719;28;20445;-88
2023/09/10 08:15:08;;;;;;;11.80;9.52;;;29.60;76.40;;;;;;5006865;28;20174;-88
2023/09/10 08:17:36;;;;;;;15.57;10.13;;;29.70;75.90;;;;;;5005877;28;20474;-89
2023/09/10 08:20:03;;;;;;;13.25;10.30;;;29.80;75.30;;;;;;5008783;28;20407;-88
2023/09/10 08:22:29;;;;;;;16.05;11.48;;;29.80;74.70;;;;;;5008242;28;20365;-88
2023/09/10 08:24:55;;;;;;;16.15;11.75;;;29.90;74.40;;;;;;5007297;28;20334;-89
2023/09/10 08:27:23;;;;;;;17.05;12.60;;;30.00;74.00;;;;;;5008557;28;20337;-88
2023/09/10 08:29:54;;;;;;;22.08;13.10;;;30.00;73.90;;;;;;5008633;28;20547;-89
2023/09/10 08:32:22;;;;;;;18.05;13.93;;;30.20;73.40;;;;;;5009836;28;20272;-88
2023/09/10 08:34:50;;;;;;;18.73;14.00;;;30.20;73.00;;;;;;5011941;28;20224;-88
2023/09/10 08:37:16;;;;;;;18.70;14.48;;;30.30;72.40;;;;;;5009954;28;20192;-89
2023/09/10 08:39:45;;;;;;;21.45;15.80;;;30.50;71.90;;;;;;5011113;28;20424;-89
2023/09/10 08:43:03;;;;;;;21.85;15.63;;;30.60;72.00;;;;;;5012054;28;20400;-88
2023/09/10 08:45:32;;;;;;;22.17;16.13;;;30.60;71.40;;;;;;4940500;28;20316;-89
2023/09/10 08:48:00;;;;;;;20.80;15.60;;;30.80;70.60;;;;;;5005691;28;20455;-89
2023/09/10 08:50:33;;;;;;;21.70;16.58;;;31.00;70.30;;;;;;5008765;28;20174;-88
2023/09/10 08:53:01;;;;;;;22.08;15.75;;;31.10;70.00;;;;;;5008844;28;20177;-89
2023/09/10 08:55:29;;;;;;;21.65;15.95;;;31.20;69.20;;;;;;5017347;28;20460;-89
2023/09/10 08:57:59;;;;;;;20.70;17.17;;;31.30;68.90;;;;;;5008680;28;20270;-88
2023/09/10 09:00:31;;;;;;;19.70;15.85;;;31.40;68.30;;;;;;5007319;28;20441;-88
2023/09/10 09:03:09;;;;;;;21.52;16.48;;;31.50;67.70;;;;;;5009163;28;20235;-88
2023/09/10 09:05:39;;;;;;;21.13;15.75;;;31.60;67.20;;;;;;4993591;28;20456;-88
2023/09/10 09:08:18;;;;;;;18.52;14.73;;;31.70;66.90;;;;;;5008500;28;20198;-88
2023/09/10 09:10:50;;;;;;;19.58;15.52;;;31.90;66.30;;;;;;5009537;28;20177;-88
2023/09/10 09:13:17;;;;;;;19.83;15.43;;;32.00;65.60;;;;;;5010858;28;20173;-89
2023/09/10 09:15:47;;;;;;;19.30;14.73;;;32.10;65.20;;;;;;5008382;28;20291;-88
2023/09/10 09:18:34;;;;;;;22.35;14.60;;;32.10;64.80;;;;;;5007479;28;20210;-88
2023/09/10 09:21:16;;;;;;;19.15;14.30;;;32.20;64.30;;;;;;5009895;28;20245;-88
2023/09/10 09:23:53;;;;;;;15.68;13.93;;;32.30;64.10;;;;;;5008485;28;20169;-88
2023/09/10 09:26:22;;;;;;;17.13;13.43;;;32.30;64.00;;;;;;5006855;28;20467;-88
2023/09/10 09:28:50;;;;;;;18.77;14.40;;;32.40;64.00;;;;;;5007560;28;20363;-88
2023/09/10 09:31:23;;;;;;;15.98;12.63;;;32.30;63.90;;;;;;5010006;28;20174;-88
2023/09/10 09:33:59;;;;;;;15.90;12.60;;;32.40;63.80;;;;;;5007504;28;20181;-88
2023/09/10 09:36:27;;;;;;;14.73;12.85;;;32.40;63.80;;;;;;5007039;28;20256;-88
2023/09/10 09:38:56;;;;;;;17.10;12.20;;;32.40;63.80;;;;;;5006103;28;20305;-89
2023/09/10 09:41:28;;;;;;;16.42;12.32;;;32.40;63.50;;;;;;5004020;28;20363;-88
2023/09/10 09:43:59;;;;;;;16.45;11.70;;;32.40;63.50;;;;;;5007709;28;20177;-89
2023/09/10 09:46:36;;;;;;;16.42;12.15;;;32.40;63.60;;;;;;5009638;28;20205;-88
2023/09/10 09:49:02;;;;;;;15.00;12.25;;;32.30;63.70;;;;;;5005067;28;20185;-88
2023/09/10 09:51:31;;;;;;;12.80;11.45;;;32.20;63.90;;;;;;5006486;28;20528;-88
2023/09/10 09:53:57;;;;;;;14.25;11.80;;;32.20;64.20;;;;;;5006657;28;20825;-89
2023/09/10 09:56:25;;;;;;;12.65;10.93;;;32.20;64.20;;;;;;5007212;28;20277;-88
2023/09/10 09:59:21;;;;;;;13.32;11.27;;;32.30;64.20;;;;;;5006859;28;20429;-88
2023/09/10 10:01:46;;;;;;;12.25;10.95;;;32.30;64.20;;;;;;5007318;28;20178;-88
2023/09/10 10:04:15;;;;;;;12.60;11.30;;;32.20;64.30;;;;;;5008023;28;20178;-88
2023/09/10 10:06:45;;;;;;;12.82;10.70;;;32.20;64.60;;;;;;5006647;28;20205;-89
2023/09/10 10:09:14;;;;;;;13.57;10.70;;;32.10;65.00;;;;;;5005993;28;20335;-88
2023/09/10 10:11:43;;;;;;;14.07;10.63;;;31.80;65.50;;;;;;5007413;28;20234;-89
2023/09/10 10:14:10;;;;;;;11.73;10.57;;;31.70;66.30;;;;;;5007914;28;20428;-89
2023/09/10 10:16:37;;;;;;;11.85;10.60;;;31.50;67.00;;;;;;5005372;28;20346;-89
2023/09/10 10:19:13;;;;;;;12.05;10.80;;;31.30;67.80;;;;;;5003553;28;20688;-89
2023/09/10 10:21:43;;;;;;;11.60;10.30;;;31.20;68.60;;;;;;5005168;28;20213;-89
2023/09/10 10:24:15;;;;;;;12.13;10.38;;;30.90;69.40;;;;;;5006801;28;20178;-89
2023/09/10 10:26:46;;;;;;;10.98;9.88;;;30.80;70.60;;;;;;5006231;28;20554;-89
2023/09/10 10:29:20;;;;;;;10.85;9.85;;;30.80;71.60;;;;;;5006298;28;20201;-89
2023/09/10 10:31:51;;;;;;;11.68;9.95;;;30.70;72.20;;;;;;5005042;28;20182;-88
2023/09/10 10:34:26;;;;;;;11.02;9.93;;;30.60;72.70;;;;;;5006186;28;20173;-90
2023/09/10 10:37:22;;;;;;;10.23;9.27;;;30.10;76.70;;;;;;5003937;28;20215;-90
2023/09/10 10:40:10;;;;;;;13.98;9.25;;;29.70;79.60;;;;;;5004873;28;20184;-90
2023/09/10 10:43:03;;;;;;;9.82;8.82;;;29.50;81.80;;;;;;5003360;28;20186;-90
2023/09/10 10:45:33;;;;;;;10.95;9.60;;;29.40;82.90;;;;;;5004978;28;20228;-90
2023/09/10 10:48:04;;;;;;;10.38;9.13;;;29.40;83.90;;;;;;5003559;28;20208;-90
2023/09/10 10:50:38;;;;;;;10.65;9.15;;;29.30;84.00;;;;;;5003532;28;20166;-90
2023/09/10 10:53:27;;;;;;;11.18;9.02;;;29.30;84.60;;;;;;5003798;28;20243;-89
2023/09/10 10:56:03;;;;;;;10.65;9.55;;;29.30;85.10;;;;;;5008324;28;20166;-89
2023/09/10 10:58:30;;;;;;;9.85;8.85;;;29.30;85.30;;;;;;5005950;28;20169;-90
2023/09/10 11:00:59;;;;;;;9.85;8.85;;;29.30;85.50;;;;;;5008311;28;20170;-90
2023/09/10 11:03:26;;;;;;;9.52;8.48;;;29.40;85.70;;;;;;5010297;28;20173;-90
2023/09/10 11:05:57;;;;;;;14.40;9.32;;;29.40;86.00;;;;;;5009864;28;20178;-89
2023/09/10 11:08:26;;;;;;;12.55;8.82;;;29.30;86.00;;;;;;5006830;28;20506;-89
2023/09/10 11:10:55;;;;;;;9.90;8.65;;;29.30;86.20;;;;;;5007278;28;20181;-89
2023/09/10 11:13:24;;;;;;;12.18;8.57;;;29.30;86.20;;;;;;5004342;28;20245;-90
2023/09/10 11:16:09;;;;;;;9.32;8.43;;;29.40;86.40;;;;;;5005378;28;20169;-89
2023/09/10 11:18:41;;;;;;;9.80;8.63;;;29.40;86.60;;;;;;5004364;28;20591;-89
2023/09/10 11:21:20;;;;;;;10.30;8.65;;;29.40;86.70;;;;;;5004706;28;20474;-89
2023/09/10 11:23:58;;;;;;;8.95;8.05;;;29.40;87.00;;;;;;5007061;28;20205;-89
2023/09/10 11:26:26;;;;;;;9.93;8.07;;;29.40;88.10;;;;;;5006099;28;20217;-89
2023/09/10 11:29:05;;;;;;;10.40;7.90;;;29.40;88.40;;;;;;5007186;28;20390;-89
2023/09/10 11:31:34;;;;;;;10.80;7.57;;;29.30;88.80;;;;;;5006007;28;20560;-89
2023/09/10 11:34:34;;;;;;;9.38;6.78;;;29.30;89.70;;;;;;5005161;28;20181;-89
2023/09/10 11:37:07;;;;;;;10.05;7.10;;;29.30;90.10;;;;;;5013797;28;20181;-89
2023/09/10 11:39:36;;;;;;;9.15;7.38;;;29.20;90.40;;;;;;5009090;28;20182;-89
2023/09/10 11:42:12;;;;;;;9.45;7.40;;;29.30;90.70;;;;;;5005961;28;20355;-89
2023/09/10 11:44:41;;;;;;;9.30;7.00;;;29.30;90.90;;;;;;5006025;28;20481;-90
2023/09/10 11:47:07;;;;;;;12.43;7.13;;;29.30;90.90;;;;;;5004511;28;20209;-89
2023/09/10 11:49:36;;;;;;;8.55;7.25;;;29.30;90.70;;;;;;5004073;28;20276;-89
2023/09/10 11:52:07;;;;;;;9.85;7.78;;;29.40;90.80;;;;;;5005775;28;20182;-89
2023/09/10 11:54:35;;;;;;;8.60;6.78;;;29.30;90.70;;;;;;5006293;28;20242;-89
2023/09/10 11:57:04;;;;;;;8.40;7.00;;;29.40;90.70;;;;;;5006428;28;20193;-90
2023/09/10 11:59:42;;;;;;;21.13;7.38;;;29.40;90.60;;;;;;5005248;28;20177;-88
2023/09/10 12:02:08;;;;;;;9.52;6.40;;;29.40;92.00;;;;;;5005063;28;20510;-87
2023/09/10 12:04:34;;;;;;;10.13;6.30;;;29.20;91.70;;;;;;5005201;28;20334;-87
2023/09/10 12:07:06;;;;;;;8.25;6.40;;;29.20;91.90;;;;;;5003851;28;20251;-87
2023/09/10 12:09:32;;;;;;;8.45;6.50;;;29.10;92.10;;;;;;5003647;28;20193;-88
2023/09/10 12:12:19;;;;;;;9.32;6.90;;;29.10;92.10;;;;;;5004441;28;20170;-87
2023/09/10 12:14:50;;;;;;;9.85;6.68;;;29.10;92.10;;;;;;5007072;28;20166;-88
2023/09/10 12:17:17;;;;;;;8.82;6.95;;;29.10;92.10;;;;;;5018186;28;20706;-87
2023/09/10 12:19:49;;;;;;;8.48;6.72;;;29.10;92.20;;;;;;5004838;28;20200;-87
2023/09/10 12:22:30;;;;;;;9.07;5.93;;;29.10;92.30;;;;;;5003770;28;20173;-87
2023/09/10 12:24:56;;;;;;;9.40;6.30;;;29.10;92.30;;;;;;5000933;28;20173;-87
2023/09/10 12:27:24;;;;;;;7.90;6.13;;;29.10;92.30;;;;;;5002530;28;20209;-87
2023/09/10 12:29:55;;;;;;;6.43;5.75;;;29.10;92.30;;;;;;5000226;28;20559;-87
2023/09/10 12:32:20;;;;;;;7.05;6.10;;;29.10;92.30;;;;;;5000448;28;20182;-87
2023/09/10 12:34:46;;;;;;;8.73;5.80;;;29.10;92.40;;;;;;5002350;28;20584;-87
2023/09/10 12:37:15;;;;;;;8.18;5.97;;;29.20;92.40;;;;;;5003414;28;20216;-88
2023/09/10 12:39:45;;;;;;;9.60;6.38;;;29.20;92.50;;;;;;5004509;28;20280;-87
2023/09/10 12:42:17;;;;;;;7.68;6.15;;;29.20;92.50;;;;;;5005378;28;20185;-87
2023/09/10 12:44:52;;;;;;;8.50;6.25;;;29.20;92.50;;;;;;5004739;28;20179;-87
2023/09/10 12:47:21;;;;;;;6.40;5.80;;;29.20;92.70;;;;;;4986359;28;20206;-87
2023/09/10 12:49:55;;;;;;;7.47;5.75;;;29.20;92.70;;;;;;4982898;28;20197;-87
2023/09/10 12:52:24;;;;;;;8.13;5.80;;;29.20;92.70;;;;;;4984732;28;20339;-87
2023/09/10 12:54:50;;;;;;;8.93;6.10;;;29.20;92.70;;;;;;4996414;28;20165;-87
2023/09/10 12:57:19;;;;;;;6.80;5.78;;;29.20;92.80;;;;;;5001138;28;20178;-87
2023/09/10 12:59:53;;;;;;;6.75;6.05;;;29.20;92.80;;;;;;5000738;28;20193;-87